Historyczne dane pomiarowe

Dodano dane terminowe – wersja testowa.

Dane z okresu 1951-2019

Wersja bazy: 1.34 [2019-03-16, lista zmian], aktualizacja planowana na 2019-04-15

Dane meteo z obszaru Polski uzyskane na podstawie danych udostępnionych przez Instytut Meteorologii i Gospodarki Wodnej – Państwowy Instytut Badawczy.

 

Wybierz Datę:    

       

TemperaturaWilgotnośćZachmurzenieWiatrCiśnienieWidzialnośćZjawiska
 Data    tng td wb rh cc ccl cl cm ch dir g1 g2 mslp ppp      
1999-08-07 00:00:00 16.0--- 14.9 15.393wxwx1wx--1010.5 986.2 0.0---wx
1999-08-07 01:00:00 15.9--- 14.3 14.990wxwxwx1wx--1010.1 985.8----wx
1999-08-07 02:00:00 14.3--- 12.6 13.389wxwxwx1wx--1009.9 985.5----wx
1999-08-07 03:00:00 14.5--- 13.5 13.994wxwxwx1wx--1009.6 985.2----wx
1999-08-07 04:00:00 14.4--- 13.2 13.793wxwxwxwx2wx--1009.2 984.8----wx
1999-08-07 05:00:00 15.1--- 13.8 14.392wxwxwxwx1wx--1009.1 984.8----wx
1999-08-07 06:00:00 18.2--- 16.1 16.988wxwxwxwx1wx--1008.6 984.6 0.0---wx
1999-08-07 07:00:00 19.6--- 16.6 17.783wxwxwxwx1wx--1008.6 984.7----wx
1999-08-07 08:00:00 23.2--- 17.7 19.671wxwxwx1wx--1008.5 984.9----wx
1999-08-07 09:00:00 26.2--- 19.1 21.465wxwxwx2wx--1008.0 984.6----wx
1999-08-07 10:00:00 28.2--- 17.0 20.851wxwxwx2wx--1007.1 983.9----wx
1999-08-07 11:00:00 28.7--- 18.0 21.552wxwxwx2wx--1006.6 983.4----wx
1999-08-07 12:00:00 29.5--- 18.4 22.051wxwxwx5wx--1006.2 983.1 0.0---wx
1999-08-07 13:00:00 20.0--- 18.3 18.990wxwxwx12wx--1007.0 983.2----wxw1
1999-08-07 14:00:00 24.0--- 18.6 20.472wxwxwx5wx--1006.2 982.7----wxw1
1999-08-07 15:00:00 25.5--- 18.8 21.067wxwxwxwxwx2wx--1005.4 982.0----wxw1
1999-08-07 16:00:00 25.8--- 18.3 20.864wxwxwx1wx--1005.2 981.9----wx
1999-08-07 17:00:00 22.4--- 17.5 19.274wxwxwx12wx--1006.4 982.8----wxw1
1999-08-07 18:00:00 20.3--- 17.5 18.584wxwxwxwx3wx--1006.2 982.4 15.5---wxw1
1999-08-07 19:00:00 19.6--- 17.8 18.489wxwxwxwx2wx--1006.9 983.0----wx
1999-08-07 20:00:00 18.6--- 17.2 17.792wxwxwxwx2wx--1007.2 983.2----wx
1999-08-07 21:00:00 18.2--- 16.5 17.190wxwxwxwx1wx--1007.1 983.1----wxw1
1999-08-07 22:00:00 16.6--- 15.8 16.195wxwxwxwx1wx--1006.7 982.6----wx
1999-08-07 23:00:00 16.8--- 16.0 16.395wxwxwxwx1wx--1006.6 982.5----wx

 

Źródłem pochodzenia danych jest Instytut Meteorologii i Gospodarki Wodnej – Państwowy Instytut Badawczy. Dane Instytutu Meteorologii i Gospodarki Wodnej – Państwowego Instytutu Badawczego zostały przetworzone.

Dane źródłowe można odnaleźć na stronie https://dane.imgw.pl